This is the latest recevied weather packets stored in our database for station/object N8QQ. If no packets are shown the sender has not sent any weather packets the latest 10 day(s).
| Time | Temp. | Humidity | Pressure | Rain* | Wind** | Luminosity | Snow |
|---|---|---|---|---|---|---|---|
| 1777861223 | 11.11° C | 65% | 1008.4 hPa | 0 mm | - | - | - |
| 1777857047 | 13.89° C | 54% | 1008 hPa | 0 mm | - | - | - |
| 1777856430 | 13.89° C | 50% | 1008 hPa | 0 mm | - | - | - |
| 1777855815 | 13.89° C | 49% | 1007.9 hPa | 0 mm | - | - | - |
| 1777851620 | 15.56° C | 47% | 1008 hPa | 0 mm | - | - | - |
| 1777847430 | 16.11° C | 42% | 1009.1 hPa | 0 mm | - | - | - |
| 1777844428 | 16.67° C | 42% | 1009.5 hPa | 0 mm | - | - | - |
| 1777836633 | 17.78° C | 40% | 1011.3 hPa | 0 mm | - | - | - |
| 1777836018 | 17.78° C | 40% | 1011.5 hPa | 0 mm | - | - | - |
| 1777834227 | 17.22° C | 41% | 1012 hPa | 0 mm | - | - | - |
| 1777831225 | 17.78° C | 40% | 1012.5 hPa | 0 mm | - | - | - |
| 1777828243 | 17.78° C | 40% | 1013.6 hPa | 0 mm | - | - | - |
| 1777825818 | 17.22° C | 44% | 1014.3 hPa | 0 mm | - | - | - |
| 1777823430 | 15.56° C | 46% | 1014.7 hPa | 0 mm | - | - | - |
| 1777822815 | 15.56° C | 48% | 1014.7 hPa | 0 mm | - | - | - |
| 1777819217 | 14.44° C | 49% | 1014.7 hPa | 0 mm | - | - | - |
| 1777818640 | 13.89° C | 49% | 1014.7 hPa | 0 mm | - | - | - |
| 1777807231 | 2.22° C | 89% | 1014.1 hPa | 0 mm | - | - | - |
| 1777805442 | 1.67° C | 88% | 1013.8 hPa | 0 mm | - | - | - |
| 1777804825 | 1.67° C | 89% | 1013.8 hPa | 0 mm | - | - | - |
| 1777804228 | 1.67° C | 89% | 1013.6 hPa | 0 mm | - | - | - |
| 1777801266 | 1.11° C | 92% | 1013.7 hPa | 0 mm | - | - | - |
| 1777786869 | 0.56° C | 91% | 1013.9 hPa | 0 mm | - | - | - |
| 1777786232 | 0.56° C | 90% | 1014 hPa | 0 mm | - | - | - |
| 1777785061 | 1.11° C | 90% | 1013.8 hPa | 0 mm | - | - | - |
* Rain latest hour (hover to see other rain measurements)
** Current wind speed in m/s (hover to see current wind gust speed)